Time;durP1;ratioP1;P1;durP2;ratioP2;P2;SDS_P1;SDS_P2;PMS_P1;PMS_P2;Temp;Humidity;BMP_temperature;BMP_pressure;BME280_temperature;BME280_humidity;BME280_pressure;Samples;Min_cycle;Max_cycle;Signal;HPM_P1;HPM_P2
2022/11/20 00:01:11;;;;;;;20.23;18.10;;;;;;;-1.65;89.11;101262.00;4990144;28;20026;-87
2022/11/20 00:03:36;;;;;;;7.53;2.92;;;;;;;-1.58;88.15;101258.47;4971669;28;20034;-81
2022/11/20 00:06:03;;;;;;;20.92;18.73;;;;;;;-1.73;88.95;101261.28;4990191;28;20033;-81
2022/11/20 00:08:29;;;;;;;19.95;17.90;;;;;;;-1.82;90.35;101256.28;4988958;28;20030;-81
2022/11/20 00:10:55;;;;;;;25.83;18.85;;;;;;;-1.82;90.54;101262.31;4988798;28;20029;-86
2022/11/20 00:13:20;;;;;;;19.88;17.75;;;;;;;-1.80;90.91;101254.53;4988753;28;20022;-87
2022/11/20 00:15:46;;;;;;;20.70;18.50;;;;;;;-1.75;90.90;101252.72;4990016;28;20493;-87
2022/11/20 00:18:11;;;;;;;21.38;19.17;;;;;;;-1.73;91.54;101254.41;4989588;28;20391;-81
2022/11/20 00:20:37;;;;;;;21.20;18.95;;;;;;;-1.80;91.54;101260.53;4990129;28;20033;-80
2022/11/20 00:23:03;;;;;;;7.78;2.78;;;;;;;-1.69;90.56;101258.63;4987661;28;20502;-80
2022/11/20 00:25:28;;;;;;;4.18;1.95;;;;;;;-1.68;90.43;101249.16;4990054;28;20054;-80
2022/11/20 00:27:53;;;;;;;22.20;19.05;;;;;;;-1.90;90.89;101244.38;4989925;28;20041;-87
2022/11/20 00:30:21;;;;;;;21.90;19.50;;;;;;;-1.95;91.54;101246.19;4989671;28;20023;-80
2022/11/20 00:32:47;;;;;;;21.98;19.67;;;;;;;-1.95;92.04;101243.59;4990377;28;20430;-86
2022/11/20 00:35:12;;;;;;;5.75;2.97;;;;;;;-1.83;91.38;101246.84;4989423;28;20072;-87
2022/11/20 00:37:37;;;;;;;21.52;19.02;;;;;;;-1.95;91.87;101246.19;4990363;28;20453;-88
2022/11/20 00:40:03;;;;;;;24.17;19.90;;;;;;;-1.95;92.51;101256.50;4988412;28;20464;-87
2022/11/20 00:42:28;;;;;;;21.95;19.58;;;;;;;-2.04;92.18;101248.03;4989552;28;20034;-87
2022/11/20 00:44:54;;;;;;;22.48;19.08;;;;;;;-2.09;92.16;101245.53;4989999;28;20038;-87
2022/11/20 00:47:19;;;;;;;22.17;18.98;;;;;;;-2.13;92.23;101243.88;4989655;28;20117;-86
2022/11/20 00:49:45;;;;;;;4.63;2.30;;;;;;;-2.02;91.93;101252.28;4989516;28;20060;-87
2022/11/20 00:52:10;;;;;;;4.68;1.83;;;;;;;-2.01;91.42;101245.41;4989767;28;20538;-86
2022/11/20 00:54:35;;;;;;;21.95;19.58;;;;;;;-2.10;92.37;101243.81;4988711;28;20030;-80
2022/11/20 00:57:01;;;;;;;21.73;19.42;;;;;;;-2.04;93.78;101245.47;4987767;28;20034;-82
2022/11/20 00:59:26;;;;;;;23.45;19.90;;;;;;;-2.02;93.89;101247.13;4989605;28;20088;-87
2022/11/20 01:01:52;;;;;;;21.95;19.63;;;;;;;-2.10;93.23;101238.69;4989778;28;20049;-87
2022/11/20 01:04:17;;;;;;;22.10;19.75;;;;;;;-2.08;93.90;101247.22;4989190;28;20030;-81
2022/11/20 01:06:42;;;;;;;23.15;20.27;;;;;;;-2.09;93.72;101240.38;4989879;28;20041;-87
2022/11/20 01:09:13;;;;;;;24.27;21.55;;;;;;;-2.13;94.22;101243.03;4988766;28;20030;-82
2022/11/20 01:11:42;;;;;;;23.20;20.48;;;;;;;-2.13;93.66;101243.03;4971379;28;20053;-87
2022/11/20 01:14:11;;;;;;;24.52;21.00;;;;;;;-2.19;94.16;101246.56;4989797;28;20054;-87
2022/11/20 01:16:42;;;;;;;23.90;21.35;;;;;;;-2.25;93.81;101254.38;4989761;28;20030;-87
2022/11/20 01:19:11;;;;;;;24.60;21.15;;;;;;;-2.18;93.96;101248.25;4971442;28;20113;-86
2022/11/20 01:21:42;;;;;;;25.33;20.95;;;;;;;-2.15;94.57;101248.22;4990277;28;20037;-86
2022/11/20 01:24:11;;;;;;;24.48;21.63;;;;;;;-2.13;95.10;101256.75;4988293;28;20033;-87
2022/11/20 01:26:39;;;;;;;24.48;21.33;;;;;;;-2.13;95.13;101251.63;4990349;28;20038;-86
2022/11/20 01:29:06;;;;;;;11.52;2.78;;;;;;;-2.00;94.36;101252.25;4988607;28;20038;-81
2022/11/20 01:31:34;;;;;;;6.60;3.70;;;;;;;-1.98;94.25;101251.41;4976213;28;20026;-85
2022/11/20 01:34:02;;;;;;;1.73;1.63;;;;;;;-1.98;93.99;101240.22;4993843;28;20037;-85
2022/11/20 01:36:30;;;;;;;1.98;1.35;;;;;;;-1.95;93.31;101240.19;4994272;28;20026;-85
2022/11/20 01:38:59;;;;;;;4.93;3.75;;;;;;;-1.93;93.39;101233.28;4993964;28;20093;-85
2022/11/20 01:44:14;;;;;;;22.15;19.25;;;;;;;-2.13;93.52;101246.47;4993718;28;20521;-85
2022/11/20 01:46:49;;;;;;;21.50;19.20;;;;;;;-2.18;94.16;101245.69;4993189;28;20037;-85
2022/11/20 01:49:24;;;;;;;4.50;3.03;;;;;;;-2.01;93.30;101241.09;4994039;28;20030;-85
2022/11/20 01:52:12;;;;;;;4.00;2.22;;;;;;;-2.01;93.60;101235.94;4994668;28;20026;-85
2022/11/20 01:54:46;;;;;;;21.65;19.13;;;;;;;-2.10;94.69;101241.25;4995523;28;20072;-85
2022/11/20 01:57:13;;;;;;;24.35;18.92;;;;;;;-2.21;95.07;101248.31;4995404;28;20118;-85
2022/11/20 01:59:44;;;;;;;22.27;19.88;;;;;;;-2.23;95.29;101247.47;4994774;28;20188;-87
2022/11/20 02:02:10;;;;;;;22.57;19.33;;;;;;;-2.26;94.64;101244.94;4994371;28;20046;-80
2022/11/20 02:04:35;;;;;;;21.98;3.90;;;;;;;-2.10;94.57;101241.25;4993739;28;20073;-85
2022/11/20 02:07:05;;;;;;;6.15;3.83;;;;;;;-2.10;94.06;101238.69;4994743;28;20438;-84
2022/11/20 02:09:31;;;;;;;7.28;4.45;;;;;;;-2.11;94.18;101226.66;4995594;28;20026;-85
2022/11/20 02:11:58;;;;;;;22.65;19.77;;;;;;;-2.30;94.78;101233.00;5000064;28;20105;-84
2022/11/20 02:14:24;;;;;;;22.20;19.90;;;;;;;-2.30;95.54;101230.41;4992652;28;20033;-84
2022/11/20 02:16:50;;;;;;;23.67;20.13;;;;;;;-2.31;95.73;101236.44;5007475;28;20037;-83
2022/11/20 02:19:21;;;;;;;22.80;20.40;;;;;;;-2.38;96.29;101238.25;5009518;28;20030;-84
2022/11/20 02:21:54;;;;;;;21.70;19.40;;;;;;;-2.42;96.38;101238.28;5007772;28;20030;-80
2022/11/20 02:24:22;;;;;;;23.80;20.73;;;;;;;-2.52;96.55;101235.84;5008934;28;20049;-84
2022/11/20 02:27:26;;;;;;;8.50;4.47;;;;;;;-2.31;95.57;101237.28;5007719;28;20026;-80
2022/11/20 02:30:00;;;;;;;9.38;4.15;;;;;;;-2.28;95.26;101236.41;4989262;28;20046;-84
2022/11/20 02:32:34;;;;;;;22.40;19.77;;;;;;;-2.41;95.65;101233.13;5008086;28;20026;-84
2022/11/20 02:35:07;;;;;;;21.35;19.05;;;;;;;-2.40;96.84;101227.13;5007930;28;20105;-82
2022/11/20 02:37:38;;;;;;;24.23;20.25;;;;;;;-2.40;96.65;101229.72;5006777;28;20026;-82
2022/11/20 02:40:04;;;;;;;22.40;19.83;;;;;;;-2.35;97.03;101227.91;5008670;28;20057;-83
2022/11/20 02:42:29;;;;;;;24.55;20.17;;;;;;;-2.36;97.40;101223.63;5006771;28;20038;-83
2022/11/20 02:44:56;;;;;;;9.95;5.25;;;;;;;-2.18;97.05;101227.63;4999590;28;20055;-85
2022/11/20 02:47:21;;;;;;;13.52;5.90;;;;;;;-2.14;96.02;101229.28;4993204;28;20337;-85
2022/11/20 02:49:47;;;;;;;24.13;21.08;;;;;;;-2.23;96.91;101229.44;4992450;28;20029;-85
2022/11/20 02:52:12;;;;;;;17.48;6.30;;;;;;;-2.11;96.42;101229.25;4993523;28;20103;-85
2022/11/20 02:54:37;;;;;;;22.77;20.38;;;;;;;-2.16;96.37;101218.16;4992291;28;20284;-85
2022/11/20 02:57:02;;;;;;;23.80;20.85;;;;;;;-2.13;96.65;101212.94;4970075;28;20113;-82
2022/11/20 02:59:28;;;;;;;24.50;21.90;;;;;;;-2.15;96.95;101221.59;4975739;28;20030;-82
2022/11/20 03:01:53;;;;;;;23.33;20.83;;;;;;;-2.08;96.64;101218.03;4992664;28;20033;-85
2022/11/20 03:04:19;;;;;;;23.45;20.75;;;;;;;-2.08;96.30;101213.72;4991127;28;20034;-86
2022/11/20 03:06:45;;;;;;;23.95;21.45;;;;;;;-2.01;96.53;101217.03;4992846;28;20117;-85
2022/11/20 03:09:10;;;;;;;23.52;21.02;;;;;;;-1.97;96.96;101211.84;4991125;28;20122;-85
2022/11/20 03:11:35;;;;;;;25.48;22.23;;;;;;;-1.96;97.29;101213.53;4991614;28;20415;-85
2022/11/20 03:14:05;;;;;;;24.10;21.60;;;;;;;-1.90;97.33;101210.00;4991750;28;20060;-85
2022/11/20 03:16:32;;;;;;;24.73;21.15;;;;;;;-1.95;96.58;101207.50;4992140;28;20034;-85
2022/11/20 03:18:58;;;;;;;15.05;6.72;;;;;;;-1.80;95.94;101201.22;4992685;28;20081;-85
2022/11/20 03:21:23;;;;;;;25.27;21.42;;;;;;;-1.95;96.74;101209.25;4992530;28;20037;-85
2022/11/20 03:23:49;;;;;;;25.42;22.02;;;;;;;-1.93;96.00;101207.47;4990467;28;20030;-85
2022/11/20 03:26:20;;;;;;;9.43;5.03;;;;;;;-1.81;96.18;101211.56;4991934;28;20109;-85
2022/11/20 03:28:48;;;;;;;24.52;21.80;;;;;;;-1.94;95.76;101204.06;4990315;28;23928;-85
2022/11/20 03:31:15;;;;;;;6.70;4.80;;;;;;;-1.78;95.63;101206.34;4991217;28;20045;-85
2022/11/20 03:33:42;;;;;;;24.00;20.75;;;;;;;-1.86;95.84;101203.91;4991354;28;20018;-85
2022/11/20 03:36:12;;;;;;;8.75;4.65;;;;;;;-1.75;95.70;101198.56;4990862;28;20062;-85
2022/11/20 03:38:38;;;;;;;24.35;21.08;;;;;;;-1.91;95.91;101191.13;4991382;28;20038;-86
2022/11/20 03:41:07;;;;;;;23.60;21.02;;;;;;;-1.96;95.95;101184.34;4991919;28;20061;-86
2022/11/20 03:43:32;;;;;;;24.35;21.80;;;;;;;-1.93;96.55;101182.56;4991117;28;20045;-86
2022/11/20 03:45:58;;;;;;;23.92;21.30;;;;;;;-1.99;96.24;101181.81;4972315;28;20038;-82
2022/11/20 03:48:24;;;;;;;24.13;21.35;;;;;;;-2.03;96.87;101175.81;4974402;28;20033;-84
2022/11/20 03:50:50;;;;;;;25.33;21.70;;;;;;;-2.01;96.83;101181.81;4991647;28;20033;-85
2022/11/20 03:53:16;;;;;;;26.77;21.48;;;;;;;-1.98;96.95;101181.78;4990800;28;20109;-82
2022/11/20 03:55:42;;;;;;;24.73;21.05;;;;;;;-2.06;96.26;101173.31;4991645;28;20026;-85
2022/11/20 03:58:07;;;;;;;24.80;21.15;;;;;;;-2.13;96.75;101163.97;4991655;28;20045;-85
2022/11/20 04:00:33;;;;;;;27.52;22.25;;;;;;;-2.12;96.84;101162.25;4990718;28;20030;-84
2022/11/20 04:02:59;;;;;;;26.77;21.83;;;;;;;-1.98;97.98;101168.03;4989933;28;20022;-85
2022/11/20 04:05:25;;;;;;;24.60;22.00;;;;;;;-2.03;97.40;101160.34;4990928;28;20471;-84
2022/11/20 04:07:50;;;;;;;25.25;21.60;;;;;;;-2.03;97.30;101168.09;4991262;28;20026;-85
2022/11/20 04:10:16;;;;;;;26.13;22.65;;;;;;;-2.01;97.70;101168.06;4991816;28;20101;-85
2022/11/20 04:12:42;;;;;;;24.40;21.77;;;;;;;-1.96;97.49;101174.88;4991151;28;20045;-85
2022/11/20 04:15:08;;;;;;;24.13;21.55;;;;;;;-1.97;97.76;101160.28;4989821;28;20031;-85
2022/11/20 04:17:33;;;;;;;24.60;21.77;;;;;;;-2.08;96.59;101164.75;4991250;28;20056;-82
2022/11/20 04:19:58;;;;;;;26.90;21.65;;;;;;;-1.99;97.18;101169.78;4989349;28;20101;-85
2022/11/20 04:22:24;;;;;;;24.42;21.80;;;;;;;-1.97;97.96;101173.16;4990129;28;20541;-85
2022/11/20 04:24:49;;;;;;;25.15;21.80;;;;;;;-1.92;97.61;101163.63;4991097;28;20022;-85
2022/11/20 04:27:14;;;;;;;23.77;21.08;;;;;;;-1.90;97.69;101159.28;4990392;28;20716;-82
2022/11/20 04:29:40;;;;;;;23.63;21.13;;;;;;;-2.00;96.96;101160.34;4990831;28;20100;-85
2022/11/20 04:32:06;;;;;;;11.82;7.00;;;;;;;-1.84;97.57;101165.22;4988921;28;20551;-85
2022/11/20 04:34:31;;;;;;;24.73;20.45;;;;;;;-1.90;97.47;101161.88;4988385;28;20108;-85
2022/11/20 04:36:56;;;;;;;12.02;6.53;;;;;;;-1.79;97.52;101163.41;4989074;28;20706;-82
2022/11/20 04:39:22;;;;;;;18.90;6.40;;;;;;;-1.78;96.83;101160.78;4990208;28;20038;-85
2022/11/20 04:41:47;;;;;;;24.40;21.65;;;;;;;-1.85;97.88;101154.06;4989843;28;20053;-82
2022/11/20 04:44:13;;;;;;;25.35;21.45;;;;;;;-1.86;97.40;101154.94;4988978;28;20055;-82
2022/11/20 04:46:41;;;;;;;23.67;21.02;;;;;;;-1.85;97.44;101148.03;4989470;28;20026;-82
2022/11/20 04:49:07;;;;;;;25.48;21.48;;;;;;;-1.92;97.58;101153.31;4987719;28;20110;-86
2022/11/20 04:51:33;;;;;;;24.33;20.98;;;;;;;-1.93;96.87;101148.19;4988568;28;20030;-85
2022/11/20 04:53:59;;;;;;;27.33;21.55;;;;;;;-1.86;97.52;101146.34;4988758;28;20050;-84
2022/11/20 04:56:24;;;;;;;24.52;21.30;;;;;;;-1.86;98.05;101147.19;4987160;28;20487;-84
2022/11/20 04:58:50;;;;;;;23.77;21.15;;;;;;;-1.93;97.52;101151.63;4989589;28;20113;-84
2022/11/20 05:01:19;;;;;;;26.08;21.88;;;;;;;-1.77;98.52;101141.00;4988494;28;20110;-82
2022/11/20 05:03:45;;;;;;;24.33;21.65;;;;;;;-1.83;98.34;101136.81;4988965;28;20057;-84
2022/11/20 05:06:13;;;;;;;26.23;21.40;;;;;;;-1.81;97.38;101139.38;4992812;28;20101;-87
2022/11/20 05:08:39;;;;;;;17.00;8.30;;;;;;;-1.69;97.10;101149.44;4994566;28;20787;-84
2022/11/20 05:11:13;;;;;;;11.25;6.22;;;;;;;-1.68;97.05;101144.25;4992326;28;20038;-85
2022/11/20 05:13:39;;;;;;;13.82;6.55;;;;;;;-1.66;97.00;101139.06;4993274;28;20481;-82
2022/11/20 05:16:24;;;;;;;13.20;6.45;;;;;;;-1.64;97.29;101138.16;4993987;28;20544;-85
2022/11/20 05:18:51;;;;;;;23.92;20.75;;;;;;;-1.75;98.07;101134.09;4994062;28;20488;-85
2022/11/20 05:21:17;;;;;;;23.23;20.60;;;;;;;-1.81;98.23;101124.75;4994354;28;20065;-85
2022/11/20 05:23:43;;;;;;;24.30;21.70;;;;;;;-1.78;98.57;101116.94;4993797;28;20053;-85
2022/11/20 05:26:16;;;;;;;24.25;21.58;;;;;;;-1.76;98.68;101116.91;4993423;28;20386;-85
2022/11/20 05:28:42;;;;;;;23.20;20.70;;;;;;;-1.70;99.21;101116.78;4991328;28;21890;-82
2022/11/20 05:31:09;;;;;;;23.88;20.77;;;;;;;-1.76;99.29;101116.91;4992470;28;20030;-82
2022/11/20 05:33:36;;;;;;;23.88;21.40;;;;;;;-1.74;99.26;101126.31;4994174;28;20499;-82
2022/11/20 05:36:04;;;;;;;24.40;21.27;;;;;;;-1.72;99.32;101123.72;4994184;28;20033;-85
2022/11/20 05:38:30;;;;;;;24.70;21.10;;;;;;;-1.71;99.11;101125.41;4993590;28;20109;-85
2022/11/20 05:41:05;;;;;;;24.38;21.67;;;;;;;-1.76;99.44;101128.09;4977759;28;20122;-85
2022/11/20 05:43:35;;;;;;;24.08;21.42;;;;;;;-1.67;99.92;101117.59;4993521;28;20121;-82
2022/11/20 05:46:01;;;;;;;24.33;21.73;;;;;;;-1.68;99.70;101121.03;4971954;28;20037;-82
2022/11/20 05:48:27;;;;;;;24.30;21.70;;;;;;;-1.65;99.56;101131.31;4992727;28;20501;-82
2022/11/20 05:50:52;;;;;;;17.08;7.13;;;;;;;-1.50;99.36;101137.91;4994148;28;20023;-84
2022/11/20 05:53:18;;;;;;;25.77;21.58;;;;;;;-1.54;99.58;101138.00;4992455;28;20030;-82
2022/11/20 05:55:43;;;;;;;16.48;6.90;;;;;;;-1.43;99.76;101147.22;4991862;28;20046;-84
2022/11/20 05:58:08;;;;;;;23.48;20.80;;;;;;;-1.52;99.51;101142.25;4992606;28;20035;-85
2022/11/20 06:00:34;;;;;;;24.70;21.42;;;;;;;-1.50;99.88;101144.81;4990603;28;20026;-84
2022/11/20 06:02:59;;;;;;;25.33;22.17;;;;;;;-1.46;100.00;101147.28;4991178;28;20101;-85
2022/11/20 06:05:25;;;;;;;25.48;21.77;;;;;;;-1.44;100.00;101155.00;4991388;28;20065;-84
2022/11/20 06:07:50;;;;;;;22.80;20.40;;;;;;;-1.42;100.00;101154.09;4992507;28;20549;-84
2022/11/20 06:10:15;;;;;;;24.63;21.80;;;;;;;-1.35;99.83;101150.50;4992094;28;20066;-82
2022/11/20 06:12:41;;;;;;;23.75;21.17;;;;;;;-1.33;100.00;101153.91;4992138;28;20022;-85
2022/11/20 06:15:07;;;;;;;24.13;21.55;;;;;;;-1.26;100.00;101152.88;4991232;28;20072;-84
2022/11/20 06:17:32;;;;;;;24.77;21.83;;;;;;;-1.24;99.26;101146.84;4973582;28;20117;-85
2022/11/20 06:19:58;;;;;;;24.60;21.95;;;;;;;-1.21;99.49;101136.44;4991172;28;20117;-85
2022/11/20 06:22:23;;;;;;;25.25;22.58;;;;;;;-1.15;99.37;101136.34;4982342;28;20541;-85
2022/11/20 06:24:48;;;;;;;25.00;21.75;;;;;;;-1.13;98.55;101139.75;4975184;28;20026;-85
2022/11/20 06:27:14;;;;;;;25.00;21.85;;;;;;;-1.06;98.67;101141.31;4992036;28;20113;-85
2022/11/20 06:29:39;;;;;;;27.42;22.33;;;;;;;-1.02;98.96;101143.78;4992290;28;20057;-85
2022/11/20 06:32:05;;;;;;;26.40;22.52;;;;;;;-0.99;99.47;101142.88;4992371;28;20073;-82
2022/11/20 06:34:30;;;;;;;23.92;21.33;;;;;;;-0.99;99.19;101137.72;4974592;28;20049;-85
2022/11/20 06:36:55;;;;;;;26.00;21.80;;;;;;;-0.95;98.72;101136.75;4991965;28;20073;-86
2022/11/20 06:39:21;;;;;;;25.05;22.10;;;;;;;-0.95;97.86;101129.00;4990581;28;20023;-85
2022/11/20 06:41:46;;;;;;;24.73;22.02;;;;;;;-0.92;97.58;101126.34;4991108;28;20030;-85
2022/11/20 06:44:12;;;;;;;23.65;21.15;;;;;;;-0.92;97.55;101128.94;4991548;28;20081;-85
2022/11/20 06:46:37;;;;;;;23.85;21.05;;;;;;;-0.91;98.42;101125.47;4991823;28;20035;-85
2022/11/20 06:49:05;;;;;;;23.65;21.17;;;;;;;-0.91;99.01;101125.47;4991499;28;20387;-82
2022/11/20 06:51:31;;;;;;;24.95;21.15;;;;;;;-0.89;99.17;101112.53;4989873;28;20030;-82
2022/11/20 06:53:56;;;;;;;25.73;22.92;;;;;;;-0.85;98.62;101116.72;4992385;28;20023;-86
2022/11/20 06:56:22;;;;;;;26.77;22.90;;;;;;;-0.82;98.32;101125.25;4989126;28;20453;-85
2022/11/20 06:58:47;;;;;;;25.25;22.70;;;;;;;-0.83;98.25;101123.56;4975175;28;20558;-85
2022/11/20 07:01:14;;;;;;;26.33;23.02;;;;;;;-0.82;98.46;101120.09;4981692;28;20105;-85
2022/11/20 07:03:40;;;;;;;25.27;22.65;;;;;;;-0.78;98.65;101119.16;4984250;28;20042;-85
2022/11/20 07:06:05;;;;;;;25.13;22.50;;;;;;;-0.73;98.76;101127.66;4980486;28;20026;-86
2022/11/20 07:08:31;;;;;;;25.33;21.58;;;;;;;-0.70;97.85;101125.00;4973475;28;20042;-85
2022/11/20 07:10:59;;;;;;;25.58;22.90;;;;;;;-0.71;98.14;101123.31;4986566;28;20498;-85
2022/11/20 07:13:29;;;;;;;26.15;22.88;;;;;;;-0.67;97.70;101124.94;4981778;28;20038;-86
2022/11/20 07:15:55;;;;;;;25.98;23.17;;;;;;;-0.62;98.05;101111.91;4976403;28;20053;-85
2022/11/20 07:18:21;;;;;;;27.58;23.27;;;;;;;-0.64;97.59;101109.34;4980568;28;20104;-85
2022/11/20 07:20:46;;;;;;;28.38;23.30;;;;;;;-0.57;97.89;101109.19;4976380;28;20507;-85
2022/11/20 07:23:11;;;;;;;27.65;24.63;;;;;;;-0.56;98.68;101111.75;4979701;28;20030;-85
2022/11/20 07:25:37;;;;;;;30.40;25.98;;;;;;;-0.52;98.12;101108.19;4990494;28;20065;-84
2022/11/20 07:28:05;;;;;;;30.73;25.55;;;;;;;-0.50;98.48;101121.09;4984849;28;20025;-84
2022/11/20 07:30:30;;;;;;;30.23;26.83;;;;;;;-0.51;97.69;101116.81;4981866;28;20026;-85
2022/11/20 07:32:56;;;;;;;30.50;27.23;;;;;;;-0.54;97.76;101109.97;4968409;28;20493;-85
2022/11/20 07:35:23;;;;;;;31.75;27.30;;;;;;;-0.56;98.16;101104.00;4981250;28;20095;-85
2022/11/20 07:37:48;;;;;;;30.98;27.58;;;;;;;-0.52;98.15;101097.00;4984937;28;20479;-85
2022/11/20 07:40:17;;;;;;;31.30;27.90;;;;;;;-0.52;98.33;101102.19;4970563;28;20160;-81
2022/11/20 07:42:48;;;;;;;30.33;27.15;;;;;;;-0.53;97.95;101101.34;4983123;28;20123;-81
2022/11/20 07:45:14;;;;;;;32.13;27.85;;;;;;;-0.47;98.46;101106.34;4977362;28;20062;-82
2022/11/20 07:47:39;;;;;;;31.52;27.38;;;;;;;-0.44;97.97;101113.19;4979494;28;20037;-81
2022/11/20 07:50:05;;;;;;;29.92;26.70;;;;;;;-0.41;97.97;101115.69;4983369;28;20037;-81
2022/11/20 07:52:30;;;;;;;30.15;26.65;;;;;;;-0.41;97.32;101106.19;4981313;28;20019;-80
2022/11/20 07:54:56;;;;;;;29.10;25.90;;;;;;;-0.33;97.73;101113.78;4974422;28;20390;-80
2022/11/20 07:57:21;;;;;;;29.20;25.63;;;;;;;-0.27;97.71;101097.28;4985696;28;20714;-80
2022/11/20 07:59:46;;;;;;;28.52;25.27;;;;;;;-0.23;97.28;101111.81;4982029;28;20022;-80
2022/11/20 08:02:11;;;;;;;27.20;24.25;;;;;;;-0.19;97.25;101111.69;4965986;28;20623;-80
2022/11/20 08:04:37;;;;;;;27.55;24.65;;;;;;;-0.14;97.20;101112.41;4982070;28;20109;-81
2022/11/20 08:07:03;;;;;;;26.95;24.15;;;;;;;-0.06;97.54;101112.22;4966619;28;20030;-81
2022/11/20 08:09:28;;;;;;;28.30;25.10;;;;;;;-0.04;98.01;101108.69;4976101;28;20110;-84
2022/11/20 08:14:38;;;;;;;28.90;24.13;;;;;;;0.10;97.19;101107.50;4985921;28;20780;-85
2022/11/20 08:17:04;;;;;;;25.88;23.13;;;;;;;0.14;96.59;101114.31;4981868;28;20034;-85
2022/11/20 08:19:29;;;;;;;28.60;23.60;;;;;;;0.17;97.04;101109.03;4983929;28;20023;-85
2022/11/20 08:21:55;;;;;;;26.15;23.45;;;;;;;0.17;97.12;101106.44;4983828;28;20113;-86
2022/11/20 08:24:20;;;;;;;27.65;24.30;;;;;;;0.20;96.67;101109.81;4990012;28;20459;-85
2022/11/20 08:26:49;;;;;;;25.77;22.83;;;;;;;0.25;96.90;101117.44;4988404;28;20029;-85
2022/11/20 08:29:14;;;;;;;28.23;23.02;;;;;;;0.26;97.19;101109.63;4989354;28;20034;-86
2022/11/20 08:31:40;;;;;;;25.75;22.58;;;;;;;0.32;97.60;101113.78;4989450;28;20483;-86
2022/11/20 08:34:05;;;;;;;25.55;22.88;;;;;;;0.34;97.59;101112.00;4987827;28;20077;-86
2022/11/20 08:36:33;;;;;;;25.38;22.38;;;;;;;0.42;97.84;101110.06;4983707;28;20106;-81
2022/11/20 08:38:58;;;;;;;26.50;22.65;;;;;;;0.48;97.43;101104.72;4990417;28;20041;-86
2022/11/20 08:41:24;;;;;;;26.33;22.30;;;;;;;0.54;97.90;101104.53;4993315;28;20034;-81
2022/11/20 08:43:51;;;;;;;24.60;22.00;;;;;;;0.60;96.74;101104.38;4993308;28;20058;-86
2022/11/20 08:46:17;;;;;;;25.63;22.88;;;;;;;0.70;97.54;101098.91;4977416;28;20501;-87
2022/11/20 08:48:43;;;;;;;24.10;21.60;;;;;;;0.71;97.68;101095.44;4993177;28;20030;-87
2022/11/20 08:51:08;;;;;;;26.17;22.75;;;;;;;0.78;97.66;101096.94;4992032;28;20506;-88
2022/11/20 08:53:37;;;;;;;24.30;21.70;;;;;;;0.86;97.18;101100.19;4994508;28;20018;-88
2022/11/20 08:56:05;;;;;;;25.40;22.33;;;;;;;0.86;97.56;101098.44;4993916;28;20033;-88
2022/11/20 08:58:31;;;;;;;24.00;20.95;;;;;;;0.97;97.16;101102.44;4992605;28;20121;-89
2022/11/20 09:00:56;;;;;;;23.63;21.10;;;;;;;0.99;97.28;101093.72;4977116;28;20114;-86
2022/11/20 09:03:22;;;;;;;25.40;22.05;;;;;;;1.05;97.14;101090.94;4993211;28;20191;-88
2022/11/20 09:05:47;;;;;;;29.92;23.98;;;;;;;1.08;98.23;101093.44;4994426;28;20022;-89
2022/11/20 09:08:12;;;;;;;28.70;23.02;;;;;;;1.16;98.00;101094.03;4991914;28;20039;-88
2022/11/20 09:10:41;;;;;;;29.13;23.70;;;;;;;1.18;97.76;101089.66;4993877;28;20814;-88
2022/11/20 09:13:07;;;;;;;32.50;24.35;;;;;;;1.26;98.03;101092.03;4993363;28;20050;-87
2022/11/20 09:15:32;;;;;;;32.67;25.05;;;;;;;1.27;98.11;101085.09;4992940;28;20088;-87
2022/11/20 09:17:59;;;;;;;31.70;25.05;;;;;;;1.33;98.69;101084.91;4976204;28;20030;-89
2022/11/20 09:20:26;;;;;;;35.22;27.25;;;;;;;1.34;98.48;101081.41;4975715;28;20054;-88
2022/11/20 09:22:51;;;;;;;33.83;25.55;;;;;;;1.42;98.40;101077.66;4991333;28;20030;-80
2022/11/20 09:25:17;;;;;;;35.17;27.10;;;;;;;1.48;98.75;101071.44;4989230;28;20030;-80
2022/11/20 09:27:45;;;;;;;35.85;27.27;;;;;;;1.49;99.31;101067.94;4973453;28;20029;-80
2022/11/20 09:30:12;;;;;;;42.25;29.17;;;;;;;1.55;99.35;101065.16;4973594;28;20019;-88
2022/11/20 09:32:42;;;;;;;40.45;29.30;;;;;;;1.66;99.60;101063.06;4983910;28;20493;-88
2022/11/20 09:35:08;;;;;;;48.25;30.85;;;;;;;1.70;98.36;101056.03;4998601;28;20077;-88
2022/11/20 09:37:33;;;;;;;46.28;31.85;;;;;;;1.73;98.78;101056.75;4974891;28;20027;-80
2022/11/20 09:39:59;;;;;;;50.53;32.55;;;;;;;1.70;98.56;101043.91;4993217;28;20368;-80
2022/11/20 09:42:44;;;;;;;51.65;33.67;;;;;;;1.76;99.06;101038.50;4992533;28;20109;-80
2022/11/20 09:45:35;;;;;;;58.80;34.22;;;;;;;1.83;99.22;101033.94;4991114;28;20047;-88
2022/11/20 09:48:25;;;;;;;59.70;34.78;;;;;;;1.84;99.09;101044.25;4993168;28;20026;-87
2022/11/20 09:50:57;;;;;;;54.72;34.40;;;;;;;1.85;98.44;101034.72;4990999;28;20093;-87
2022/11/20 09:53:36;;;;;;;57.60;36.92;;;;;;;1.89;98.98;101044.09;4990357;28;20357;-80
2022/11/20 09:56:04;;;;;;;57.58;36.05;;;;;;;1.89;98.96;101044.09;4990997;28;20044;-80
2022/11/20 09:58:39;;;;;;;60.95;36.28;;;;;;;1.96;98.70;101039.53;4990439;28;20031;-80
2022/11/20 10:01:18;;;;;;;57.58;35.90;;;;;;;1.98;99.32;101017.81;4991758;28;20118;-88
2022/11/20 10:04:04;;;;;;;53.08;35.70;;;;;;;2.02;98.97;101023.78;4991245;28;20133;-80
2022/11/20 10:06:31;;;;;;;53.33;35.22;;;;;;;2.07;97.96;101011.47;4992318;28;20026;-88
2022/11/20 10:09:20;;;;;;;48.40;33.28;;;;;;;2.15;98.50;101010.28;4992160;28;20046;-87
2022/11/20 10:11:49;;;;;;;47.47;33.03;;;;;;;2.15;98.46;100999.06;4992010;28;20177;-87
2022/11/20 10:14:17;;;;;;;44.00;31.75;;;;;;;2.14;98.69;100989.59;4992321;28;20027;-83
2022/11/20 10:17:08;;;;;;;47.25;32.85;;;;;;;2.22;98.88;100982.34;4992834;28;20046;-82
2022/11/20 10:20:02;;;;;;;46.72;31.92;;;;;;;2.30;99.18;100962.13;4990791;28;20036;-81
2022/11/20 10:22:48;;;;;;;50.35;34.63;;;;;;;2.40;99.32;100958.31;4975055;28;20113;-88
2022/11/20 10:25:23;;;;;;;47.00;33.63;;;;;;;2.46;98.39;100963.28;4992884;28;20034;-88
2022/11/20 10:27:54;;;;;;;47.35;33.75;;;;;;;2.53;98.22;100963.03;4991868;28;20081;-87
2022/11/20 10:30:24;;;;;;;48.45;33.53;;;;;;;2.53;97.11;100968.22;4991840;28;20028;-81
2022/11/20 10:32:53;;;;;;;52.05;35.05;;;;;;;2.60;97.72;100959.28;4990872;28;20030;-80
2022/11/20 10:35:26;;;;;;;48.08;32.83;;;;;;;2.62;97.39;100960.06;4984650;28;20015;-80
2022/11/20 10:38:05;;;;;;;;;;;;;;;2.77;98.20;100951.66;4992968;28;20244;-88
2022/11/20 10:40:52;;;;;;;46.90;34.13;;;;;;;2.65;96.78;100942.59;4991291;28;19914;-87
2022/11/20 10:43:33;;;;;;;52.53;35.58;;;;;;;2.75;97.42;100938.72;4998986;28;20129;-87
2022/11/20 10:46:03;;;;;;;50.85;35.60;;;;;;;2.70;95.89;100930.28;4988125;28;20514;-87
2022/11/20 10:48:30;;;;;;;49.67;36.05;;;;;;;2.72;96.39;100925.00;4979669;28;20032;-87
2022/11/20 10:51:08;;;;;;;57.60;36.97;;;;;;;2.74;96.57;100923.19;4997862;28;20026;-80
2022/11/20 10:53:43;;;;;;;51.35;35.88;;;;;;;2.79;97.18;100929.06;4991917;28;20033;-86
2022/11/20 10:56:19;;;;;;;50.97;35.60;;;;;;;2.82;97.26;100908.16;5006272;28;20061;-86
2022/11/20 10:59:05;;;;;;;51.92;36.88;;;;;;;2.86;96.96;100904.53;4988924;28;20503;-80
2022/11/20 11:01:30;;;;;;;47.72;36.42;;;;;;;2.85;96.80;100897.66;4986484;28;20014;-80
2022/11/20 11:03:57;;;;;;;51.40;36.40;;;;;;;2.93;96.69;100900.78;4985008;28;20302;-87
2022/11/20 11:06:35;;;;;;;51.30;36.85;;;;;;;2.92;96.16;100908.63;4991324;28;20128;-86
2022/11/20 11:09:10;;;;;;;51.75;37.50;;;;;;;2.88;96.27;100900.13;5005981;28;20034;-86
2022/11/20 11:11:38;;;;;;;48.90;36.22;;;;;;;2.91;96.73;100901.75;4991756;28;20022;-79
2022/11/20 11:14:08;;;;;;;52.70;37.92;;;;;;;2.90;97.00;100900.06;4991934;28;20101;-87
2022/11/20 11:16:34;;;;;;;52.72;37.03;;;;;;;2.89;97.63;100899.22;4991232;28;20080;-86
2022/11/20 11:19:11;;;;;;;55.15;38.63;;;;;;;2.91;97.62;100897.41;4991464;28;20054;-86
2022/11/20 11:21:43;;;;;;;59.70;38.88;;;;;;;2.90;98.89;100893.09;4984452;28;20437;-87
2022/11/20 11:24:20;;;;;;;53.60;38.05;;;;;;;2.96;99.43;100895.44;4989378;28;20364;-86